sensor_id;sensor_type;location;lat;lon;timestamp;P1;durP1;ratioP1;P2;durP2;ratioP2
30337;SDS011;17143;51.888;5.408;2022-08-01T00:01:34;6.70;;;4.47;;
30337;SDS011;17143;51.888;5.408;2022-08-01T00:16:37;6.80;;;4.50;;
30337;SDS011;17143;51.888;5.408;2022-08-01T00:31:39;6.13;;;4.27;;
30337;SDS011;17143;51.888;5.408;2022-08-01T00:46:41;6.30;;;4.60;;
30337;SDS011;17143;51.888;5.408;2022-08-01T01:01:43;6.23;;;4.80;;
30337;SDS011;17143;51.888;5.408;2022-08-01T01:16:45;7.53;;;5.30;;
30337;SDS011;17143;51.888;5.408;2022-08-01T01:31:50;10.37;;;6.17;;
30337;SDS011;17143;51.888;5.408;2022-08-01T01:46:57;6.43;;;4.90;;
30337;SDS011;17143;51.888;5.408;2022-08-01T02:02:01;7.07;;;4.77;;
30337;SDS011;17143;51.888;5.408;2022-08-01T02:17:05;7.43;;;4.73;;
30337;SDS011;17143;51.888;5.408;2022-08-01T02:32:07;7.60;;;5.10;;
30337;SDS011;17143;51.888;5.408;2022-08-01T02:47:13;9.33;;;5.10;;
30337;SDS011;17143;51.888;5.408;2022-08-01T03:02:17;9.67;;;5.97;;
30337;SDS011;17143;51.888;5.408;2022-08-01T03:17:21;11.13;;;5.83;;
30337;SDS011;17143;51.888;5.408;2022-08-01T03:32:25;10.57;;;5.97;;
30337;SDS011;17143;51.888;5.408;2022-08-01T03:47:31;11.70;;;5.67;;
30337;SDS011;17143;51.888;5.408;2022-08-01T04:02:34;9.00;;;5.53;;
30337;SDS011;17143;51.888;5.408;2022-08-01T04:17:38;13.17;;;6.53;;
30337;SDS011;17143;51.888;5.408;2022-08-01T04:32:40;6.37;;;4.93;;
30337;SDS011;17143;51.888;5.408;2022-08-01T04:47:45;8.03;;;5.43;;
30337;SDS011;17143;51.888;5.408;2022-08-01T05:02:48;6.87;;;4.37;;
30337;SDS011;17143;51.888;5.408;2022-08-01T05:17:50;7.57;;;4.43;;
30337;SDS011;17143;51.888;5.408;2022-08-01T05:32:52;5.97;;;4.47;;
30337;SDS011;17143;51.888;5.408;2022-08-01T05:47:54;3.73;;;3.43;;
30337;SDS011;17143;51.888;5.408;2022-08-01T06:02:56;5.87;;;3.80;;
30337;SDS011;17143;51.888;5.408;2022-08-01T06:17:58;5.23;;;3.53;;
30337;SDS011;17143;51.888;5.408;2022-08-01T06:33:00;3.40;;;2.67;;
30337;SDS011;17143;51.888;5.408;2022-08-01T06:48:02;4.37;;;2.00;;
30337;SDS011;17143;51.888;5.408;2022-08-01T07:03:04;1.17;;;0.87;;
30337;SDS011;17143;51.888;5.408;2022-08-01T07:18:06;1.63;;;1.00;;
30337;SDS011;17143;51.888;5.408;2022-08-01T07:33:08;3.73;;;0.97;;
30337;SDS011;17143;51.888;5.408;2022-08-01T07:48:10;1.37;;;1.00;;
30337;SDS011;17143;51.888;5.408;2022-08-01T08:03:12;1.03;;;0.70;;
30337;SDS011;17143;51.888;5.408;2022-08-01T08:18:14;1.33;;;0.73;;
30337;SDS011;17143;51.888;5.408;2022-08-01T08:33:17;2.80;;;0.87;;
30337;SDS011;17143;51.888;5.408;2022-08-01T08:48:19;2.40;;;1.17;;
30337;SDS011;17143;51.888;5.408;2022-08-01T09:03:22;2.37;;;1.40;;
30337;SDS011;17143;51.888;5.408;2022-08-01T09:18:28;1.10;;;0.90;;
30337;SDS011;17143;51.888;5.408;2022-08-01T09:33:39;3.37;;;1.43;;
30337;SDS011;17143;51.888;5.408;2022-08-01T09:48:58;3.40;;;2.00;;
30337;SDS011;17143;51.888;5.408;2022-08-01T10:04:05;3.63;;;1.80;;
30337;SDS011;17143;51.888;5.408;2022-08-01T10:19:09;8.67;;;2.27;;
30337;SDS011;17143;51.888;5.408;2022-08-01T10:34:11;6.60;;;2.10;;
30337;SDS011;17143;51.888;5.408;2022-08-01T10:49:15;6.20;;;2.10;;
30337;SDS011;17143;51.888;5.408;2022-08-01T11:04:19;4.80;;;2.10;;
30337;SDS011;17143;51.888;5.408;2022-08-01T11:19:21;6.23;;;2.03;;
30337;SDS011;17143;51.888;5.408;2022-08-01T11:34:34;5.30;;;2.20;;
30337;SDS011;17143;51.888;5.408;2022-08-01T11:49:54;4.87;;;1.83;;
30337;SDS011;17143;51.888;5.408;2022-08-01T12:04:57;7.60;;;1.47;;
30337;SDS011;17143;51.888;5.408;2022-08-01T12:20:00;4.43;;;1.43;;
30337;SDS011;17143;51.888;5.408;2022-08-01T12:35:04;9.23;;;1.57;;
30337;SDS011;17143;51.888;5.408;2022-08-01T12:50:11;10.57;;;1.70;;
30337;SDS011;17143;51.888;5.408;2022-08-01T13:05:16;3.67;;;1.40;;
30337;SDS011;17143;51.888;5.408;2022-08-01T13:20:28;6.17;;;1.83;;
30337;SDS011;17143;51.888;5.408;2022-08-01T13:35:32;4.07;;;1.20;;
30337;SDS011;17143;51.888;5.408;2022-08-01T13:50:34;3.47;;;1.17;;
30337;SDS011;17143;51.888;5.408;2022-08-01T14:05:36;3.67;;;0.97;;
30337;SDS011;17143;51.888;5.408;2022-08-01T14:20:39;3.37;;;1.00;;
30337;SDS011;17143;51.888;5.408;2022-08-01T14:35:41;1.53;;;0.87;;
30337;SDS011;17143;51.888;5.408;2022-08-01T14:50:43;3.00;;;0.73;;
30337;SDS011;17143;51.888;5.408;2022-08-01T15:05:45;1.83;;;1.00;;
30337;SDS011;17143;51.888;5.408;2022-08-01T15:20:47;2.80;;;1.10;;
30337;SDS011;17143;51.888;5.408;2022-08-01T15:35:49;1.40;;;0.70;;
30337;SDS011;17143;51.888;5.408;2022-08-01T15:50:51;1.23;;;0.70;;
30337;SDS011;17143;51.888;5.408;2022-08-01T16:05:53;0.87;;;0.60;;
30337;SDS011;17143;51.888;5.408;2022-08-01T16:20:55;3.63;;;0.70;;
30337;SDS011;17143;51.888;5.408;2022-08-01T16:35:57;3.40;;;0.90;;
30337;SDS011;17143;51.888;5.408;2022-08-01T16:50:59;2.67;;;0.90;;
30337;SDS011;17143;51.888;5.408;2022-08-01T17:06:01;2.17;;;0.70;;
30337;SDS011;17143;51.888;5.408;2022-08-01T17:21:03;3.70;;;0.83;;
30337;SDS011;17143;51.888;5.408;2022-08-01T17:36:06;2.87;;;0.70;;
30337;SDS011;17143;51.888;5.408;2022-08-01T17:51:08;1.10;;;0.70;;
30337;SDS011;17143;51.888;5.408;2022-08-01T18:06:11;1.77;;;0.67;;
30337;SDS011;17143;51.888;5.408;2022-08-01T18:21:14;2.73;;;0.80;;
30337;SDS011;17143;51.888;5.408;2022-08-01T18:36:16;1.70;;;0.73;;
30337;SDS011;17143;51.888;5.408;2022-08-01T18:51:18;2.53;;;1.00;;
30337;SDS011;17143;51.888;5.408;2022-08-01T19:06:20;3.30;;;0.80;;
30337;SDS011;17143;51.888;5.408;2022-08-01T19:21:22;1.97;;;0.93;;
30337;SDS011;17143;51.888;5.408;2022-08-01T19:36:24;3.17;;;1.03;;
30337;SDS011;17143;51.888;5.408;2022-08-01T19:51:26;3.00;;;0.90;;
30337;SDS011;17143;51.888;5.408;2022-08-01T20:06:31;4.17;;;1.10;;
30337;SDS011;17143;51.888;5.408;2022-08-01T20:21:33;3.77;;;1.20;;
30337;SDS011;17143;51.888;5.408;2022-08-01T20:36:36;5.90;;;1.10;;
30337;SDS011;17143;51.888;5.408;2022-08-01T20:51:38;3.07;;;1.00;;
30337;SDS011;17143;51.888;5.408;2022-08-01T21:06:42;5.50;;;1.30;;
30337;SDS011;17143;51.888;5.408;2022-08-01T21:21:58;2.27;;;1.07;;
30337;SDS011;17143;51.888;5.408;2022-08-01T21:37:04;2.97;;;1.70;;
30337;SDS011;17143;51.888;5.408;2022-08-01T21:52:08;2.87;;;1.80;;
30337;SDS011;17143;51.888;5.408;2022-08-01T22:07:12;3.87;;;1.60;;
30337;SDS011;17143;51.888;5.408;2022-08-01T22:22:16;2.80;;;1.10;;
30337;SDS011;17143;51.888;5.408;2022-08-01T22:37:19;3.67;;;1.30;;
30337;SDS011;17143;51.888;5.408;2022-08-01T22:52:23;4.90;;;1.30;;
30337;SDS011;17143;51.888;5.408;2022-08-01T23:07:31;2.37;;;1.00;;
30337;SDS011;17143;51.888;5.408;2022-08-01T23:22:35;2.37;;;1.50;;
30337;SDS011;17143;51.888;5.408;2022-08-01T23:37:37;2.97;;;1.60;;
30337;SDS011;17143;51.888;5.408;2022-08-01T23:52:39;3.90;;;1.60;;
